sensor_id;sensor_type;location;lat;lon;timestamp;P1;durP1;ratioP1;P2;durP2;ratioP2
65581;SDS011;52231;40.090;18.348;2023-02-01T00:01:08;7.60;;;1.65;;
65581;SDS011;52231;40.090;18.348;2023-02-01T00:03:44;8.23;;;2.00;;
65581;SDS011;52231;40.090;18.348;2023-02-01T00:06:25;4.53;;;1.55;;
65581;SDS011;52231;40.090;18.348;2023-02-01T00:09:35;9.55;;;2.75;;
65581;SDS011;52231;40.090;18.348;2023-02-01T00:12:07;9.38;;;3.13;;
65581;SDS011;52231;40.090;18.348;2023-02-01T00:14:40;7.72;;;2.50;;
65581;SDS011;52231;40.090;18.348;2023-02-01T00:17:10;7.90;;;2.78;;
65581;SDS011;52231;40.090;18.348;2023-02-01T00:20:03;8.73;;;1.73;;
65581;SDS011;52231;40.090;18.348;2023-02-01T00:22:37;4.10;;;1.63;;
65581;SDS011;52231;40.090;18.348;2023-02-01T00:25:07;5.10;;;1.42;;
65581;SDS011;52231;40.090;18.348;2023-02-01T00:27:48;3.30;;;1.45;;
65581;SDS011;52231;40.090;18.348;2023-02-01T00:30:22;4.40;;;1.60;;
65581;SDS011;52231;40.090;18.348;2023-02-01T00:32:51;3.53;;;1.40;;
65581;SDS011;52231;40.090;18.348;2023-02-01T00:35:20;6.10;;;1.70;;
65581;SDS011;52231;40.090;18.348;2023-02-01T00:37:49;5.20;;;1.63;;
65581;SDS011;52231;40.090;18.348;2023-02-01T00:40:50;4.78;;;1.38;;
65581;SDS011;52231;40.090;18.348;2023-02-01T00:43:23;4.70;;;1.60;;
65581;SDS011;52231;40.090;18.348;2023-02-01T00:45:54;4.47;;;1.35;;
65581;SDS011;52231;40.090;18.348;2023-02-01T00:48:31;5.43;;;1.60;;
65581;SDS011;52231;40.090;18.348;2023-02-01T00:51:01;3.40;;;1.50;;
65581;SDS011;52231;40.090;18.348;2023-02-01T00:53:45;5.13;;;1.50;;
65581;SDS011;52231;40.090;18.348;2023-02-01T00:56:26;4.28;;;1.58;;
65581;SDS011;52231;40.090;18.348;2023-02-01T00:58:56;4.25;;;1.63;;
65581;SDS011;52231;40.090;18.348;2023-02-01T01:01:25;3.88;;;1.60;;
65581;SDS011;52231;40.090;18.348;2023-02-01T01:04:04;8.10;;;1.52;;
65581;SDS011;52231;40.090;18.348;2023-02-01T01:06:40;3.53;;;1.27;;
65581;SDS011;52231;40.090;18.348;2023-02-01T01:09:22;5.28;;;1.38;;
65581;SDS011;52231;40.090;18.348;2023-02-01T01:11:50;6.65;;;1.80;;
65581;SDS011;52231;40.090;18.348;2023-02-01T01:14:22;7.22;;;1.65;;
65581;SDS011;52231;40.090;18.348;2023-02-01T01:16:51;3.20;;;0.98;;
65581;SDS011;52231;40.090;18.348;2023-02-01T01:19:21;4.45;;;1.27;;
65581;SDS011;52231;40.090;18.348;2023-02-01T01:21:58;4.45;;;1.33;;
65581;SDS011;52231;40.090;18.348;2023-02-01T01:24:43;5.68;;;1.23;;
65581;SDS011;52231;40.090;18.348;2023-02-01T01:27:12;3.55;;;1.30;;
65581;SDS011;52231;40.090;18.348;2023-02-01T01:29:40;3.80;;;1.00;;
65581;SDS011;52231;40.090;18.348;2023-02-01T01:32:09;5.53;;;1.38;;
65581;SDS011;52231;40.090;18.348;2023-02-01T01:34:37;2.80;;;1.15;;
65581;SDS011;52231;40.090;18.348;2023-02-01T01:37:11;1.83;;;1.20;;
65581;SDS011;52231;40.090;18.348;2023-02-01T01:39:45;3.95;;;1.20;;
65581;SDS011;52231;40.090;18.348;2023-02-01T01:42:24;3.22;;;1.10;;
65581;SDS011;52231;40.090;18.348;2023-02-01T01:47:37;5.95;;;1.30;;
65581;SDS011;52231;40.090;18.348;2023-02-01T01:50:23;2.55;;;1.08;;
65581;SDS011;52231;40.090;18.348;2023-02-01T01:53:38;7.03;;;1.35;;
65581;SDS011;52231;40.090;18.348;2023-02-01T01:59:16;5.13;;;1.30;;
65581;SDS011;52231;40.090;18.348;2023-02-01T02:03:20;3.97;;;1.20;;
65581;SDS011;52231;40.090;18.348;2023-02-01T02:09:27;4.82;;;1.23;;
65581;SDS011;52231;40.090;18.348;2023-02-01T02:11:59;5.18;;;1.45;;
65581;SDS011;52231;40.090;18.348;2023-02-01T02:35:57;7.38;;;1.25;;
65581;SDS011;52231;40.090;18.348;2023-02-01T02:48:16;4.85;;;1.38;;
65581;SDS011;52231;40.090;18.348;2023-02-01T02:57:32;4.45;;;1.23;;
65581;SDS011;52231;40.090;18.348;2023-02-01T03:00:37;3.67;;;1.25;;
65581;SDS011;52231;40.090;18.348;2023-02-01T03:03:36;5.57;;;1.23;;
65581;SDS011;52231;40.090;18.348;2023-02-01T03:06:46;4.80;;;1.50;;
65581;SDS011;52231;40.090;18.348;2023-02-01T03:09:41;5.15;;;1.50;;
65581;SDS011;52231;40.090;18.348;2023-02-01T03:17:56;2.38;;;1.20;;
65581;SDS011;52231;40.090;18.348;2023-02-01T03:20:59;5.95;;;1.50;;
65581;SDS011;52231;40.090;18.348;2023-02-01T03:32:29;7.80;;;1.85;;
65581;SDS011;52231;40.090;18.348;2023-02-01T03:36:09;5.72;;;1.70;;
65581;SDS011;52231;40.090;18.348;2023-02-01T03:39:59;4.13;;;1.65;;
65581;SDS011;52231;40.090;18.348;2023-02-01T03:42:47;7.88;;;1.90;;
65581;SDS011;52231;40.090;18.348;2023-02-01T03:45:52;5.70;;;1.77;;
65581;SDS011;52231;40.090;18.348;2023-02-01T03:48:50;4.70;;;1.52;;
65581;SDS011;52231;40.090;18.348;2023-02-01T03:51:21;5.63;;;1.80;;
65581;SDS011;52231;40.090;18.348;2023-02-01T04:01:22;5.97;;;2.10;;
65581;SDS011;52231;40.090;18.348;2023-02-01T04:03:50;5.35;;;2.03;;
65581;SDS011;52231;40.090;18.348;2023-02-01T04:10:29;10.77;;;2.80;;
65581;SDS011;52231;40.090;18.348;2023-02-01T04:13:20;7.53;;;2.38;;
65581;SDS011;52231;40.090;18.348;2023-02-01T04:15:51;10.90;;;2.25;;
65581;SDS011;52231;40.090;18.348;2023-02-01T04:18:27;9.35;;;3.25;;
65581;SDS011;52231;40.090;18.348;2023-02-01T04:20:58;8.52;;;2.90;;
65581;SDS011;52231;40.090;18.348;2023-02-01T04:23:34;7.57;;;1.95;;
65581;SDS011;52231;40.090;18.348;2023-02-01T04:27:23;4.32;;;1.60;;
65581;SDS011;52231;40.090;18.348;2023-02-01T04:30:18;5.70;;;1.80;;
65581;SDS011;52231;40.090;18.348;2023-02-01T04:32:51;13.18;;;2.90;;
65581;SDS011;52231;40.090;18.348;2023-02-01T04:35:20;5.88;;;2.25;;
65581;SDS011;52231;40.090;18.348;2023-02-01T04:37:49;7.50;;;2.13;;
65581;SDS011;52231;40.090;18.348;2023-02-01T04:40:50;6.57;;;2.20;;
65581;SDS011;52231;40.090;18.348;2023-02-01T04:43:18;5.78;;;2.17;;
65581;SDS011;52231;40.090;18.348;2023-02-01T04:45:56;4.18;;;1.52;;
65581;SDS011;52231;40.090;18.348;2023-02-01T04:50:55;3.65;;;2.05;;
65581;SDS011;52231;40.090;18.348;2023-02-01T04:53:35;4.53;;;1.60;;
65581;SDS011;52231;40.090;18.348;2023-02-01T04:56:03;7.63;;;1.77;;
65581;SDS011;52231;40.090;18.348;2023-02-01T05:01:34;6.53;;;1.90;;
65581;SDS011;52231;40.090;18.348;2023-02-01T05:04:21;8.00;;;2.80;;
65581;SDS011;52231;40.090;18.348;2023-02-01T05:07:03;8.25;;;2.55;;
65581;SDS011;52231;40.090;18.348;2023-02-01T05:09:31;7.43;;;2.30;;
65581;SDS011;52231;40.090;18.348;2023-02-01T05:12:03;6.38;;;2.20;;
65581;SDS011;52231;40.090;18.348;2023-02-01T05:14:51;9.23;;;3.03;;
65581;SDS011;52231;40.090;18.348;2023-02-01T05:17:22;10.68;;;3.05;;
65581;SDS011;52231;40.090;18.348;2023-02-01T05:19:50;7.72;;;2.63;;
65581;SDS011;52231;40.090;18.348;2023-02-01T05:22:19;8.48;;;2.33;;
65581;SDS011;52231;40.090;18.348;2023-02-01T05:24:55;11.02;;;3.25;;
65581;SDS011;52231;40.090;18.348;2023-02-01T05:27:24;9.93;;;3.17;;
65581;SDS011;52231;40.090;18.348;2023-02-01T05:29:54;7.20;;;2.40;;
65581;SDS011;52231;40.090;18.348;2023-02-01T05:32:23;9.05;;;2.63;;
65581;SDS011;52231;40.090;18.348;2023-02-01T05:34:51;8.77;;;2.78;;
65581;SDS011;52231;40.090;18.348;2023-02-01T05:37:20;8.65;;;2.72;;
65581;SDS011;52231;40.090;18.348;2023-02-01T05:39:54;12.82;;;2.72;;
65581;SDS011;52231;40.090;18.348;2023-02-01T05:42:22;6.32;;;2.47;;
65581;SDS011;52231;40.090;18.348;2023-02-01T05:44:51;13.73;;;3.25;;
65581;SDS011;52231;40.090;18.348;2023-02-01T05:47:19;7.53;;;2.78;;
65581;SDS011;52231;40.090;18.348;2023-02-01T05:49:48;8.68;;;3.10;;
65581;SDS011;52231;40.090;18.348;2023-02-01T05:52:19;7.95;;;3.03;;
65581;SDS011;52231;40.090;18.348;2023-02-01T05:54:48;9.55;;;3.50;;
65581;SDS011;52231;40.090;18.348;2023-02-01T05:57:17;10.27;;;3.30;;
65581;SDS011;52231;40.090;18.348;2023-02-01T05:59:45;8.85;;;2.95;;
65581;SDS011;52231;40.090;18.348;2023-02-01T06:02:15;8.68;;;2.92;;
65581;SDS011;52231;40.090;18.348;2023-02-01T06:07:12;9.68;;;2.90;;
65581;SDS011;52231;40.090;18.348;2023-02-01T06:09:40;9.90;;;3.20;;
65581;SDS011;52231;40.090;18.348;2023-02-01T06:12:22;8.10;;;2.33;;
65581;SDS011;52231;40.090;18.348;2023-02-01T06:14:51;7.07;;;2.33;;
65581;SDS011;52231;40.090;18.348;2023-02-01T06:17:20;6.95;;;2.03;;
65581;SDS011;52231;40.090;18.348;2023-02-01T06:19:48;8.77;;;2.42;;
65581;SDS011;52231;40.090;18.348;2023-02-01T06:22:16;8.15;;;2.65;;
65581;SDS011;52231;40.090;18.348;2023-02-01T06:24:45;13.90;;;3.08;;
65581;SDS011;52231;40.090;18.348;2023-02-01T06:27:13;9.95;;;3.13;;
65581;SDS011;52231;40.090;18.348;2023-02-01T06:29:43;9.45;;;2.67;;
65581;SDS011;52231;40.090;18.348;2023-02-01T06:32:11;8.25;;;3.33;;
65581;SDS011;52231;40.090;18.348;2023-02-01T06:34:39;11.90;;;2.83;;
65581;SDS011;52231;40.090;18.348;2023-02-01T06:37:07;9.75;;;3.13;;
65581;SDS011;52231;40.090;18.348;2023-02-01T06:39:35;10.85;;;3.20;;
65581;SDS011;52231;40.090;18.348;2023-02-01T06:42:04;11.38;;;3.70;;
65581;SDS011;52231;40.090;18.348;2023-02-01T06:44:32;12.13;;;3.45;;
65581;SDS011;52231;40.090;18.348;2023-02-01T06:47:02;11.10;;;3.53;;
65581;SDS011;52231;40.090;18.348;2023-02-01T06:49:33;13.05;;;3.58;;
65581;SDS011;52231;40.090;18.348;2023-02-01T06:52:02;10.65;;;3.22;;
65581;SDS011;52231;40.090;18.348;2023-02-01T06:54:30;10.73;;;3.80;;
65581;SDS011;52231;40.090;18.348;2023-02-01T06:57:00;12.18;;;3.92;;
65581;SDS011;52231;40.090;18.348;2023-02-01T06:59:28;11.30;;;3.72;;
65581;SDS011;52231;40.090;18.348;2023-02-01T07:01:57;10.73;;;3.72;;
65581;SDS011;52231;40.090;18.348;2023-02-01T07:04:29;13.50;;;4.82;;
65581;SDS011;52231;40.090;18.348;2023-02-01T07:07:02;8.80;;;3.70;;
65581;SDS011;52231;40.090;18.348;2023-02-01T07:09:30;15.70;;;6.40;;
65581;SDS011;52231;40.090;18.348;2023-02-01T07:12:00;15.60;;;5.53;;
65581;SDS011;52231;40.090;18.348;2023-02-01T07:14:32;14.15;;;5.07;;
65581;SDS011;52231;40.090;18.348;2023-02-01T07:17:28;16.40;;;6.63;;
65581;SDS011;52231;40.090;18.348;2023-02-01T07:25:17;12.95;;;4.90;;
65581;SDS011;52231;40.090;18.348;2023-02-01T07:27:48;11.93;;;4.30;;
65581;SDS011;52231;40.090;18.348;2023-02-01T07:30:16;11.48;;;4.20;;
65581;SDS011;52231;40.090;18.348;2023-02-01T07:32:45;10.20;;;3.42;;
65581;SDS011;52231;40.090;18.348;2023-02-01T07:35:13;11.20;;;4.30;;
65581;SDS011;52231;40.090;18.348;2023-02-01T07:37:41;11.32;;;4.30;;
65581;SDS011;52231;40.090;18.348;2023-02-01T07:40:10;14.95;;;6.65;;
65581;SDS011;52231;40.090;18.348;2023-02-01T07:42:39;12.82;;;4.53;;
65581;SDS011;52231;40.090;18.348;2023-02-01T07:45:08;16.33;;;5.43;;
65581;SDS011;52231;40.090;18.348;2023-02-01T07:47:47;105.18;;;41.88;;
65581;SDS011;52231;40.090;18.348;2023-02-01T07:50:15;41.55;;;19.00;;
65581;SDS011;52231;40.090;18.348;2023-02-01T07:52:44;17.02;;;7.82;;
65581;SDS011;52231;40.090;18.348;2023-02-01T07:55:12;11.25;;;5.63;;
65581;SDS011;52231;40.090;18.348;2023-02-01T07:57:40;12.25;;;4.53;;
65581;SDS011;52231;40.090;18.348;2023-02-01T08:02:59;12.23;;;4.50;;
65581;SDS011;52231;40.090;18.348;2023-02-01T08:05:27;14.30;;;6.15;;
65581;SDS011;52231;40.090;18.348;2023-02-01T08:07:56;13.23;;;5.72;;
65581;SDS011;52231;40.090;18.348;2023-02-01T08:10:24;13.68;;;5.22;;
65581;SDS011;52231;40.090;18.348;2023-02-01T08:12:57;13.43;;;5.38;;
65581;SDS011;52231;40.090;18.348;2023-02-01T08:15:27;11.32;;;4.13;;
65581;SDS011;52231;40.090;18.348;2023-02-01T08:17:56;18.55;;;5.40;;
65581;SDS011;52231;40.090;18.348;2023-02-01T08:20:25;12.32;;;4.47;;
65581;SDS011;52231;40.090;18.348;2023-02-01T08:22:54;16.10;;;5.72;;
65581;SDS011;52231;40.090;18.348;2023-02-01T08:25:22;13.57;;;4.60;;
65581;SDS011;52231;40.090;18.348;2023-02-01T08:30:19;15.88;;;4.78;;
65581;SDS011;52231;40.090;18.348;2023-02-01T08:35:15;21.23;;;5.97;;
65581;SDS011;52231;40.090;18.348;2023-02-01T08:37:44;19.05;;;6.65;;
65581;SDS011;52231;40.090;18.348;2023-02-01T08:40:13;22.35;;;7.72;;
65581;SDS011;52231;40.090;18.348;2023-02-01T08:42:41;18.13;;;5.68;;
65581;SDS011;52231;40.090;18.348;2023-02-01T08:47:56;12.57;;;4.50;;
65581;SDS011;52231;40.090;18.348;2023-02-01T08:50:25;11.20;;;4.05;;
65581;SDS011;52231;40.090;18.348;2023-02-01T08:52:54;13.13;;;5.78;;
65581;SDS011;52231;40.090;18.348;2023-02-01T08:55:22;13.15;;;5.25;;
65581;SDS011;52231;40.090;18.348;2023-02-01T08:57:50;10.52;;;4.25;;
65581;SDS011;52231;40.090;18.348;2023-02-01T09:00:18;11.95;;;3.63;;
65581;SDS011;52231;40.090;18.348;2023-02-01T09:02:46;21.27;;;7.88;;
65581;SDS011;52231;40.090;18.348;2023-02-01T09:05:14;31.08;;;12.25;;
65581;SDS011;52231;40.090;18.348;2023-02-01T09:07:46;13.00;;;3.95;;
65581;SDS011;52231;40.090;18.348;2023-02-01T09:10:22;6.78;;;2.00;;
65581;SDS011;52231;40.090;18.348;2023-02-01T09:13:00;4.22;;;1.80;;
65581;SDS011;52231;40.090;18.348;2023-02-01T09:15:29;4.82;;;1.83;;
65581;SDS011;52231;40.090;18.348;2023-02-01T09:17:57;10.60;;;2.97;;
65581;SDS011;52231;40.090;18.348;2023-02-01T09:20:25;8.13;;;2.58;;
65581;SDS011;52231;40.090;18.348;2023-02-01T09:22:54;8.27;;;2.47;;
65581;SDS011;52231;40.090;18.348;2023-02-01T09:25:23;8.23;;;2.50;;
65581;SDS011;52231;40.090;18.348;2023-02-01T09:27:51;7.82;;;2.90;;
65581;SDS011;52231;40.090;18.348;2023-02-01T09:30:19;9.10;;;3.08;;
65581;SDS011;52231;40.090;18.348;2023-02-01T09:32:48;6.18;;;2.28;;
65581;SDS011;52231;40.090;18.348;2023-02-01T09:35:16;6.45;;;2.20;;
65581;SDS011;52231;40.090;18.348;2023-02-01T09:37:44;8.90;;;3.00;;
65581;SDS011;52231;40.090;18.348;2023-02-01T09:40:14;7.38;;;1.75;;
65581;SDS011;52231;40.090;18.348;2023-02-01T09:48:27;9.73;;;3.47;;
65581;SDS011;52231;40.090;18.348;2023-02-01T09:51:00;10.52;;;3.35;;
65581;SDS011;52231;40.090;18.348;2023-02-01T09:53:37;6.53;;;1.70;;
65581;SDS011;52231;40.090;18.348;2023-02-01T09:56:33;4.07;;;1.70;;
65581;SDS011;52231;40.090;18.348;2023-02-01T10:01:58;4.47;;;1.80;;
65581;SDS011;52231;40.090;18.348;2023-02-01T10:04:28;3.97;;;1.63;;
65581;SDS011;52231;40.090;18.348;2023-02-01T10:21:14;4.43;;;2.42;;
65581;SDS011;52231;40.090;18.348;2023-02-01T10:26:49;6.47;;;2.30;;
65581;SDS011;52231;40.090;18.348;2023-02-01T10:29:25;7.78;;;2.10;;
65581;SDS011;52231;40.090;18.348;2023-02-01T10:32:00;7.03;;;2.47;;
65581;SDS011;52231;40.090;18.348;2023-02-01T10:34:31;6.00;;;2.25;;
65581;SDS011;52231;40.090;18.348;2023-02-01T10:37:23;7.60;;;2.40;;
65581;SDS011;52231;40.090;18.348;2023-02-01T10:39:59;6.07;;;2.17;;
65581;SDS011;52231;40.090;18.348;2023-02-01T10:42:43;9.48;;;3.70;;
65581;SDS011;52231;40.090;18.348;2023-02-01T10:45:19;10.13;;;5.07;;
65581;SDS011;52231;40.090;18.348;2023-02-01T10:47:51;8.32;;;3.17;;
65581;SDS011;52231;40.090;18.348;2023-02-01T10:53:00;10.23;;;3.72;;
65581;SDS011;52231;40.090;18.348;2023-02-01T10:55:49;11.02;;;4.10;;
65581;SDS011;52231;40.090;18.348;2023-02-01T10:58:20;7.88;;;2.90;;
65581;SDS011;52231;40.090;18.348;2023-02-01T11:01:07;11.32;;;4.57;;
65581;SDS011;52231;40.090;18.348;2023-02-01T11:03:42;11.25;;;4.03;;
65581;SDS011;52231;40.090;18.348;2023-02-01T11:08:52;13.43;;;4.70;;
65581;SDS011;52231;40.090;18.348;2023-02-01T11:11:22;12.82;;;5.32;;
65581;SDS011;52231;40.090;18.348;2023-02-01T11:13:56;10.90;;;4.10;;
65581;SDS011;52231;40.090;18.348;2023-02-01T11:16:38;11.88;;;5.30;;
65581;SDS011;52231;40.090;18.348;2023-02-01T11:19:07;11.65;;;3.10;;
65581;SDS011;52231;40.090;18.348;2023-02-01T11:21:59;8.80;;;2.83;;
65581;SDS011;52231;40.090;18.348;2023-02-01T11:24:29;9.40;;;3.13;;
65581;SDS011;52231;40.090;18.348;2023-02-01T11:27:04;13.38;;;5.00;;
65581;SDS011;52231;40.090;18.348;2023-02-01T11:29:46;12.13;;;4.93;;
65581;SDS011;52231;40.090;18.348;2023-02-01T11:32:19;11.68;;;3.92;;
65581;SDS011;52231;40.090;18.348;2023-02-01T11:34:54;13.57;;;6.25;;
65581;SDS011;52231;40.090;18.348;2023-02-01T11:37:27;12.90;;;5.70;;
65581;SDS011;52231;40.090;18.348;2023-02-01T11:40:04;10.10;;;3.08;;
65581;SDS011;52231;40.090;18.348;2023-02-01T11:43:00;8.93;;;3.60;;
65581;SDS011;52231;40.090;18.348;2023-02-01T11:45:37;6.90;;;2.38;;
65581;SDS011;52231;40.090;18.348;2023-02-01T11:48:09;5.85;;;1.80;;
65581;SDS011;52231;40.090;18.348;2023-02-01T11:53:46;5.45;;;1.80;;
65581;SDS011;52231;40.090;18.348;2023-02-01T12:16:00;10.52;;;4.93;;
65581;SDS011;52231;40.090;18.348;2023-02-01T12:24:53;12.65;;;4.43;;
65581;SDS011;52231;40.090;18.348;2023-02-01T12:30:02;5.90;;;1.92;;
65581;SDS011;52231;40.090;18.348;2023-02-01T12:44:26;6.10;;;2.30;;
65581;SDS011;52231;40.090;18.348;2023-02-01T12:47:12;11.25;;;4.50;;
65581;SDS011;52231;40.090;18.348;2023-02-01T12:50:01;13.98;;;5.50;;
65581;SDS011;52231;40.090;18.348;2023-02-01T12:52:35;17.95;;;9.80;;
65581;SDS011;52231;40.090;18.348;2023-02-01T12:55:07;11.55;;;5.68;;
65581;SDS011;52231;40.090;18.348;2023-02-01T12:57:49;11.15;;;3.90;;
65581;SDS011;52231;40.090;18.348;2023-02-01T13:05:55;7.70;;;2.90;;
65581;SDS011;52231;40.090;18.348;2023-02-01T13:08:50;6.63;;;2.63;;
65581;SDS011;52231;40.090;18.348;2023-02-01T13:11:39;10.18;;;4.05;;
65581;SDS011;52231;40.090;18.348;2023-02-01T13:20:52;7.68;;;2.95;;
65581;SDS011;52231;40.090;18.348;2023-02-01T13:23:23;6.28;;;2.25;;
65581;SDS011;52231;40.090;18.348;2023-02-01T13:26:03;12.40;;;6.18;;
65581;SDS011;52231;40.090;18.348;2023-02-01T13:28:35;14.23;;;7.15;;
65581;SDS011;52231;40.090;18.348;2023-02-01T13:34:25;11.65;;;4.82;;
65581;SDS011;52231;40.090;18.348;2023-02-01T13:37:05;12.30;;;6.40;;
65581;SDS011;52231;40.090;18.348;2023-02-01T13:42:35;7.65;;;2.92;;
65581;SDS011;52231;40.090;18.348;2023-02-01T13:45:26;9.35;;;3.53;;
65581;SDS011;52231;40.090;18.348;2023-02-01T13:47:59;9.13;;;3.65;;
65581;SDS011;52231;40.090;18.348;2023-02-01T13:50:57;7.85;;;3.13;;
65581;SDS011;52231;40.090;18.348;2023-02-01T13:53:31;6.97;;;2.70;;
65581;SDS011;52231;40.090;18.348;2023-02-01T13:56:40;7.47;;;2.80;;
65581;SDS011;52231;40.090;18.348;2023-02-01T14:08:07;7.22;;;2.33;;
65581;SDS011;52231;40.090;18.348;2023-02-01T14:13:23;15.05;;;6.40;;
65581;SDS011;52231;40.090;18.348;2023-02-01T14:16:12;16.85;;;7.18;;
65581;SDS011;52231;40.090;18.348;2023-02-01T14:24:24;9.38;;;3.40;;
65581;SDS011;52231;40.090;18.348;2023-02-01T14:26:54;27.33;;;11.80;;
65581;SDS011;52231;40.090;18.348;2023-02-01T14:34:50;7.22;;;2.38;;
65581;SDS011;52231;40.090;18.348;2023-02-01T14:37:44;7.25;;;2.72;;
65581;SDS011;52231;40.090;18.348;2023-02-01T14:58:35;10.60;;;3.60;;
65581;SDS011;52231;40.090;18.348;2023-02-01T15:04:09;10.57;;;3.88;;
65581;SDS011;52231;40.090;18.348;2023-02-01T15:06:49;9.32;;;3.45;;
65581;SDS011;52231;40.090;18.348;2023-02-01T15:09:30;10.15;;;3.70;;
65581;SDS011;52231;40.090;18.348;2023-02-01T15:20:21;13.57;;;5.30;;
65581;SDS011;52231;40.090;18.348;2023-02-01T15:23:01;11.57;;;4.43;;
65581;SDS011;52231;40.090;18.348;2023-02-01T15:25:33;11.75;;;4.82;;
65581;SDS011;52231;40.090;18.348;2023-02-01T15:28:04;12.27;;;4.93;;
65581;SDS011;52231;40.090;18.348;2023-02-01T15:30:34;13.32;;;5.32;;
65581;SDS011;52231;40.090;18.348;2023-02-01T15:33:07;13.68;;;6.43;;
65581;SDS011;52231;40.090;18.348;2023-02-01T15:38:37;16.13;;;7.95;;
65581;SDS011;52231;40.090;18.348;2023-02-01T15:41:14;20.42;;;11.00;;
65581;SDS011;52231;40.090;18.348;2023-02-01T15:46:33;17.63;;;9.73;;
65581;SDS011;52231;40.090;18.348;2023-02-01T15:51:51;19.23;;;12.05;;
65581;SDS011;52231;40.090;18.348;2023-02-01T15:54:41;26.45;;;13.70;;
65581;SDS011;52231;40.090;18.348;2023-02-01T15:57:36;26.27;;;14.65;;
65581;SDS011;52231;40.090;18.348;2023-02-01T16:00:30;20.27;;;12.27;;
65581;SDS011;52231;40.090;18.348;2023-02-01T16:06:05;17.30;;;10.18;;
65581;SDS011;52231;40.090;18.348;2023-02-01T16:11:39;21.05;;;11.05;;
65581;SDS011;52231;40.090;18.348;2023-02-01T16:14:24;26.42;;;12.55;;
65581;SDS011;52231;40.090;18.348;2023-02-01T16:16:55;30.92;;;15.82;;
65581;SDS011;52231;40.090;18.348;2023-02-01T16:19:24;36.13;;;17.30;;
65581;SDS011;52231;40.090;18.348;2023-02-01T16:21:56;30.98;;;15.32;;
65581;SDS011;52231;40.090;18.348;2023-02-01T16:24:24;25.92;;;13.43;;
65581;SDS011;52231;40.090;18.348;2023-02-01T16:26:53;24.77;;;12.50;;
65581;SDS011;52231;40.090;18.348;2023-02-01T16:29:21;26.20;;;12.20;;
65581;SDS011;52231;40.090;18.348;2023-02-01T16:31:50;28.67;;;14.27;;
65581;SDS011;52231;40.090;18.348;2023-02-01T16:34:19;29.02;;;16.23;;
65581;SDS011;52231;40.090;18.348;2023-02-01T16:36:48;32.22;;;16.77;;
65581;SDS011;52231;40.090;18.348;2023-02-01T16:39:20;27.75;;;13.27;;
65581;SDS011;52231;40.090;18.348;2023-02-01T16:41:49;27.85;;;13.90;;
65581;SDS011;52231;40.090;18.348;2023-02-01T16:44:18;30.00;;;15.98;;
65581;SDS011;52231;40.090;18.348;2023-02-01T16:46:46;29.13;;;15.90;;
65581;SDS011;52231;40.090;18.348;2023-02-01T16:49:25;31.42;;;17.08;;
65581;SDS011;52231;40.090;18.348;2023-02-01T16:51:55;38.28;;;17.20;;
65581;SDS011;52231;40.090;18.348;2023-02-01T16:54:26;41.10;;;19.55;;
65581;SDS011;52231;40.090;18.348;2023-02-01T16:56:54;37.58;;;18.33;;
65581;SDS011;52231;40.090;18.348;2023-02-01T16:59:22;42.75;;;20.70;;
65581;SDS011;52231;40.090;18.348;2023-02-01T17:01:51;48.97;;;25.45;;
65581;SDS011;52231;40.090;18.348;2023-02-01T17:04:20;49.15;;;24.13;;
65581;SDS011;52231;40.090;18.348;2023-02-01T17:06:52;47.92;;;22.27;;
65581;SDS011;52231;40.090;18.348;2023-02-01T17:09:21;43.38;;;21.45;;
65581;SDS011;52231;40.090;18.348;2023-02-01T17:11:53;38.03;;;20.48;;
65581;SDS011;52231;40.090;18.348;2023-02-01T17:14:21;40.40;;;20.02;;
65581;SDS011;52231;40.090;18.348;2023-02-01T17:16:49;39.55;;;19.80;;
65581;SDS011;52231;40.090;18.348;2023-02-01T17:19:19;37.30;;;18.73;;
65581;SDS011;52231;40.090;18.348;2023-02-01T17:21:54;35.63;;;18.02;;
65581;SDS011;52231;40.090;18.348;2023-02-01T17:24:27;40.40;;;20.42;;
65581;SDS011;52231;40.090;18.348;2023-02-01T17:27:12;41.50;;;20.73;;
65581;SDS011;52231;40.090;18.348;2023-02-01T17:29:41;42.50;;;22.05;;
65581;SDS011;52231;40.090;18.348;2023-02-01T17:34:56;39.42;;;22.20;;
65581;SDS011;52231;40.090;18.348;2023-02-01T17:37:26;54.83;;;32.22;;
65581;SDS011;52231;40.090;18.348;2023-02-01T17:39:57;57.78;;;34.53;;
65581;SDS011;52231;40.090;18.348;2023-02-01T17:44:56;60.03;;;34.80;;
65581;SDS011;52231;40.090;18.348;2023-02-01T17:47:27;46.22;;;28.83;;
65581;SDS011;52231;40.090;18.348;2023-02-01T17:49:56;44.83;;;26.20;;
65581;SDS011;52231;40.090;18.348;2023-02-01T17:52:24;50.92;;;30.48;;
65581;SDS011;52231;40.090;18.348;2023-02-01T17:54:54;44.90;;;27.02;;
65581;SDS011;52231;40.090;18.348;2023-02-01T17:57:22;46.63;;;28.17;;
65581;SDS011;52231;40.090;18.348;2023-02-01T17:59:51;49.30;;;29.70;;
65581;SDS011;52231;40.090;18.348;2023-02-01T18:02:28;52.17;;;31.60;;
65581;SDS011;52231;40.090;18.348;2023-02-01T18:18:48;66.57;;;41.38;;
65581;SDS011;52231;40.090;18.348;2023-02-01T18:35:57;63.10;;;37.92;;
65581;SDS011;52231;40.090;18.348;2023-02-01T18:38:30;71.68;;;41.92;;
65581;SDS011;52231;40.090;18.348;2023-02-01T18:44:16;83.05;;;45.95;;
65581;SDS011;52231;40.090;18.348;2023-02-01T18:46:44;72.20;;;41.28;;
65581;SDS011;52231;40.090;18.348;2023-02-01T18:49:45;74.50;;;37.95;;
65581;SDS011;52231;40.090;18.348;2023-02-01T18:57:12;79.35;;;43.10;;
65581;SDS011;52231;40.090;18.348;2023-02-01T19:00:53;79.60;;;43.90;;
65581;SDS011;52231;40.090;18.348;2023-02-01T19:09:05;95.13;;;51.60;;
65581;SDS011;52231;40.090;18.348;2023-02-01T19:12:51;90.63;;;46.45;;
65581;SDS011;52231;40.090;18.348;2023-02-01T19:37:28;77.80;;;41.50;;
65581;SDS011;52231;40.090;18.348;2023-02-01T19:40:48;59.22;;;34.70;;
65581;SDS011;52231;40.090;18.348;2023-02-01T19:44:00;60.13;;;33.22;;
65581;SDS011;52231;40.090;18.348;2023-02-01T19:46:55;58.75;;;32.17;;
65581;SDS011;52231;40.090;18.348;2023-02-01T19:53:46;58.20;;;31.92;;
65581;SDS011;52231;40.090;18.348;2023-02-01T19:56:18;72.22;;;34.17;;
65581;SDS011;52231;40.090;18.348;2023-02-01T19:59:13;74.80;;;33.90;;
65581;SDS011;52231;40.090;18.348;2023-02-01T20:02:36;73.10;;;35.15;;
65581;SDS011;52231;40.090;18.348;2023-02-01T20:05:33;55.70;;;31.38;;
65581;SDS011;52231;40.090;18.348;2023-02-01T20:21:03;32.67;;;18.90;;
65581;SDS011;52231;40.090;18.348;2023-02-01T20:29:08;28.13;;;14.68;;
65581;SDS011;52231;40.090;18.348;2023-02-01T20:42:01;38.47;;;20.38;;
65581;SDS011;52231;40.090;18.348;2023-02-01T20:58:13;48.17;;;29.55;;
65581;SDS011;52231;40.090;18.348;2023-02-01T21:01:49;46.83;;;25.88;;
65581;SDS011;52231;40.090;18.348;2023-02-01T21:32:01;59.58;;;32.58;;
65581;SDS011;52231;40.090;18.348;2023-02-01T21:35:52;57.95;;;31.35;;
65581;SDS011;52231;40.090;18.348;2023-02-01T21:38:52;52.78;;;28.58;;
65581;SDS011;52231;40.090;18.348;2023-02-01T21:56:27;48.95;;;27.95;;
65581;SDS011;52231;40.090;18.348;2023-02-01T21:59:21;47.67;;;26.67;;
65581;SDS011;52231;40.090;18.348;2023-02-01T22:02:11;46.55;;;24.65;;
65581;SDS011;52231;40.090;18.348;2023-02-01T22:10:35;39.38;;;21.80;;
65581;SDS011;52231;40.090;18.348;2023-02-01T22:14:45;36.13;;;20.08;;
65581;SDS011;52231;40.090;18.348;2023-02-01T22:36:20;31.10;;;17.48;;
65581;SDS011;52231;40.090;18.348;2023-02-01T23:13:47;25.85;;;15.32;;
65581;SDS011;52231;40.090;18.348;2023-02-01T23:47:47;39.33;;;19.70;;
